Anshun, China
Current Conditions -  °F | °C
As of 7:00 AM on Wednesday 22 Oct 2014 (Local Time) from ZUGY Reporting Station
Haze Haze  
Wind Chill: 55°   Ceiling: 3000
Heat Index: 55°   Visibility: 1.8mi
Dew Point: 54°   Wind: 2mph
Humidity: 94%   Direction: NA
Pressure: 30.27"   Gusts: NA
Location:  26.25°N, 105.93°E
Report Text: ZUGY 212300Z VRB01MPS 3000 BR SCT013 BKN030 13/12 Q1025 NOSIG
Loading
Personal Weather Stations






























Interactive Weather Map
Tropical Storm Tracking
New forecast layout! Learn more

10-Day Weather Forecast

Advertisements
Track Severe Weather on mobile